This demonstration page uses our WeatherBlox Daily Observations layout. Learn more.

41.55636, -103.73856

Hourly Observations for July 24, 2019

Temp ( °F °C ) Dew Point ( °F °C ) Humidity (%) Winds ( mph kmh ) Pressure ( in mb ) Visibility ( mi km ) Precip ( " mm )
12:58 am 00:58 Clear 81 27 53 11.5 38 38 SSE 8 13 29.82 1010 10 16.0934 0 0
1:58 am 01:58 Clear 73 22.9 56 13.4 55 55 SE 8 13 29.91 1013 10 16.0934 0 0
2:58 am 02:58 Clear 70 21.2 56 13.6 62 62 SSE 10 17 30.08 1019 10 16.0934 0 0
3:58 am 03:58 Clear 66 19 55 12.9 68 68 SSE 8 13 30.11 1020 10 16.0934 0 0
7:58 am 07:58 Clear 60 15.4 52 11.2 76 76 SSW 8 13 30.05 1018 10 16.0934 0 0
8:58 am 08:58 Clear 58 14.5 52 11.2 81 81 SSW 10 17 30.03 1017 10 16.0934 0 0
9:58 am 09:58 Clear 60 15.6 53 11.7 78 78 SSW 14 22 30.02 1017 10 16.0934 0 0
10:58 am 10:58 Clear 58 14.4 52 11.1 81 81 W 5 7 30.03 1017 10 16.0934 0 0
11:58 am 11:58 Sunny 59 14.8 52 11.3 80 80 WSW 9 15 30.02 1017 10 16.0934 0 0
12:58 pm 12:58 Sunny 62 16.8 53 11.9 73 73 SW 12 19 30.03 1017 10 16.0934 0 0
1:58 pm 13:58 Sunny 69 20.8 57 13.9 65 65 SSW 6 9 30.03 1017 10 16.0934 0 0
2:58 pm 14:58 Sunny 77 24.8 58 14.2 52 52 SSW 8 13 30.02 1017 10 16.0934 0 0
3:58 pm 15:58 Mostly Sunny 82 27.6 54 12.3 39 39 SSW 8 13 30 1016 10 16.0934 0 0
4:58 pm 16:58 Sunny 85 29.7 49 9.5 28 28 S 9 15 29.98 1015 10 16.0934 0 0
5:58 pm 17:58 Sunny 87 30.6 51 10.6 29 29 SSW 10 17 29.98 1015 10 16.0934 0 0
6:58 pm 18:58 Sunny 89 31.5 49 9.5 26 26 SW 14 22 29.96 1015 10 16.0934 0 0
8:58 pm 20:58 Sunny 86 29.9 48 8.8 27 27 SSW 10 17 29.95 1014 10 16.0934 0 0
9:58 pm 21:58 Mostly Sunny 86 30.2 50 10.2 29 29 SSE 12 19 29.92 1013 10 16.0934 0 0
10:58 pm 22:58 Mostly Cloudy 82 27.7 47 8.6 30 30 SW 14 22 29.94 1014 10 16.0934 0 0
11:58 pm 23:58 Mostly Cloudy 83 28.6 49 9.4 30 30 SW 13 20 29.93 1014 10 16.0934 0 0

Powered by AerisWeather